sensor_id;sensor_type;location;lat;lon;timestamp;pressure;altitude;pressure_sealevel;temperature;humidity
57086;BME280;42964;42.910;23.792;2023-02-07T00:02:16;99220.81;;;-2.42;71.77
57086;BME280;42964;42.910;23.792;2023-02-07T00:07:14;99232.03;;;-2.62;71.56
57086;BME280;42964;42.910;23.792;2023-02-07T00:12:13;99235.19;;;-2.76;70.41
57086;BME280;42964;42.910;23.792;2023-02-07T00:17:12;99231.72;;;-3.00;71.48
57086;BME280;42964;42.910;23.792;2023-02-07T00:22:11;99243.28;;;-3.04;72.40
57086;BME280;42964;42.910;23.792;2023-02-07T00:27:10;99249.75;;;-2.85;72.51
57086;BME280;42964;42.910;23.792;2023-02-07T00:32:08;99257.19;;;-2.77;71.58
57086;BME280;42964;42.910;23.792;2023-02-07T00:37:07;99258.84;;;-2.99;71.40
57086;BME280;42964;42.910;23.792;2023-02-07T00:42:07;99261.00;;;-2.94;71.31
57086;BME280;42964;42.910;23.792;2023-02-07T00:47:06;99218.75;;;-3.15;70.98
57086;BME280;42964;42.910;23.792;2023-02-07T00:52:05;99243.09;;;-2.95;70.26
57086;BME280;42964;42.910;23.792;2023-02-07T00:57:04;99241.81;;;-3.12;69.74
57086;BME280;42964;42.910;23.792;2023-02-07T01:02:03;99247.78;;;-3.34;70.59
57086;BME280;42964;42.910;23.792;2023-02-07T01:07:02;99251.94;;;-3.56;70.76
57086;BME280;42964;42.910;23.792;2023-02-07T01:12:01;99239.31;;;-3.66;71.85
57086;BME280;42964;42.910;23.792;2023-02-07T01:17:00;99240.06;;;-3.57;73.23
57086;BME280;42964;42.910;23.792;2023-02-07T01:21:58;99196.44;;;-3.63;73.10
57086;BME280;42964;42.910;23.792;2023-02-07T01:26:57;99238.88;;;-3.28;73.99
57086;BME280;42964;42.910;23.792;2023-02-07T01:31:56;99230.66;;;-3.14;73.81
57086;BME280;42964;42.910;23.792;2023-02-07T01:36:56;99225.22;;;-2.97;74.73
57086;BME280;42964;42.910;23.792;2023-02-07T01:41:55;99224.81;;;-2.79;74.22
57086;BME280;42964;42.910;23.792;2023-02-07T01:46:55;99232.66;;;-2.76;73.69
57086;BME280;42964;42.910;23.792;2023-02-07T01:52:02;99236.72;;;-2.78;73.87
57086;BME280;42964;42.910;23.792;2023-02-07T01:57:06;99234.31;;;-2.77;73.57
57086;BME280;42964;42.910;23.792;2023-02-07T02:02:06;99046.97;;;-3.94;73.88
57086;BME280;42964;42.910;23.792;2023-02-07T02:07:05;99236.56;;;-3.03;74.43
57086;BME280;42964;42.910;23.792;2023-02-07T02:38:46;99250.63;;;-2.97;74.40
57086;BME280;42964;42.910;23.792;2023-02-07T02:44:02;99215.47;;;-3.02;74.85
57086;BME280;42964;42.910;23.792;2023-02-07T02:49:03;99256.47;;;-2.64;74.71
57086;BME280;42964;42.910;23.792;2023-02-07T02:54:30;99257.13;;;-2.55;74.76
57086;BME280;42964;42.910;23.792;2023-02-07T03:20:33;99259.84;;;-2.18;75.45
57086;BME280;42964;42.910;23.792;2023-02-07T03:25:34;99259.63;;;-2.09;74.88
57086;BME280;42964;42.910;23.792;2023-02-07T03:30:35;99258.97;;;-2.07;75.24
57086;BME280;42964;42.910;23.792;2023-02-07T03:35:59;99255.22;;;-2.12;74.46
57086;BME280;42964;42.910;23.792;2023-02-07T03:41:04;99253.34;;;-2.14;74.33
57086;BME280;42964;42.910;23.792;2023-02-07T03:46:08;99257.84;;;-2.22;74.53
57086;BME280;42964;42.910;23.792;2023-02-07T03:51:07;99235.28;;;-2.29;75.43
57086;BME280;42964;42.910;23.792;2023-02-07T03:56:06;99257.31;;;-2.06;74.52
57086;BME280;42964;42.910;23.792;2023-02-07T04:01:05;99250.81;;;-2.02;73.95
57086;BME280;42964;42.910;23.792;2023-02-07T04:06:03;99245.91;;;-2.11;74.07
57086;BME280;42964;42.910;23.792;2023-02-07T04:11:03;99246.03;;;-2.10;74.54
57086;BME280;42964;42.910;23.792;2023-02-07T04:16:04;99217.81;;;-2.36;73.97
57086;BME280;42964;42.910;23.792;2023-02-07T04:21:05;99246.69;;;-2.24;74.04
57086;BME280;42964;42.910;23.792;2023-02-07T04:26:04;99246.03;;;-2.21;74.32
57086;BME280;42964;42.910;23.792;2023-02-07T04:31:03;99245.69;;;-2.26;74.20
57086;BME280;42964;42.910;23.792;2023-02-07T04:36:02;99259.63;;;-2.21;73.90
57086;BME280;42964;42.910;23.792;2023-02-07T04:41:03;99261.84;;;-2.25;74.24
57086;BME280;42964;42.910;23.792;2023-02-07T04:46:05;99267.38;;;-2.19;74.43
57086;BME280;42964;42.910;23.792;2023-02-07T04:51:05;99273.44;;;-2.17;74.07
57086;BME280;42964;42.910;23.792;2023-02-07T04:56:04;99280.84;;;-2.20;74.21
57086;BME280;42964;42.910;23.792;2023-02-07T05:01:03;99286.41;;;-2.14;74.37
57086;BME280;42964;42.910;23.792;2023-02-07T05:06:03;99293.22;;;-2.25;73.40
57086;BME280;42964;42.910;23.792;2023-02-07T05:11:03;99288.00;;;-2.27;73.07
57086;BME280;42964;42.910;23.792;2023-02-07T05:16:03;99285.16;;;-2.31;73.41
57086;BME280;42964;42.910;23.792;2023-02-07T05:21:02;99230.59;;;-2.70;73.74
57086;BME280;42964;42.910;23.792;2023-02-07T05:26:01;99287.72;;;-2.31;73.69
57086;BME280;42964;42.910;23.792;2023-02-07T05:31:00;99301.16;;;-2.44;73.70
57086;BME280;42964;42.910;23.792;2023-02-07T05:36:00;99304.66;;;-2.54;73.39
57086;BME280;42964;42.910;23.792;2023-02-07T05:41:00;99309.94;;;-2.62;74.60
57086;BME280;42964;42.910;23.792;2023-02-07T05:45:59;99303.34;;;-2.49;74.31
57086;BME280;42964;42.910;23.792;2023-02-07T05:50:58;99316.88;;;-2.38;74.84
57086;BME280;42964;42.910;23.792;2023-02-07T05:55:57;99328.13;;;-2.34;74.52
57086;BME280;42964;42.910;23.792;2023-02-07T06:00:56;99323.94;;;-2.34;74.72
57086;BME280;42964;42.910;23.792;2023-02-07T06:05:54;99323.50;;;-2.40;74.90
57086;BME280;42964;42.910;23.792;2023-02-07T06:10:53;99333.78;;;-2.27;75.13
57086;BME280;42964;42.910;23.792;2023-02-07T06:15:52;99331.59;;;-2.10;74.82
57086;BME280;42964;42.910;23.792;2023-02-07T06:20:51;99336.59;;;-2.12;74.21
57086;BME280;42964;42.910;23.792;2023-02-07T06:25:50;99348.22;;;-2.03;74.69
57086;BME280;42964;42.910;23.792;2023-02-07T06:30:50;99336.84;;;-1.85;74.06
57086;BME280;42964;42.910;23.792;2023-02-07T06:35:50;99299.44;;;-2.10;73.34
57086;BME280;42964;42.910;23.792;2023-02-07T06:40:49;99323.13;;;-1.99;71.60
57086;BME280;42964;42.910;23.792;2023-02-07T06:45:48;99366.84;;;-1.81;71.19
57086;BME280;42964;42.910;23.792;2023-02-07T06:50:50;99351.47;;;-1.71;71.24
57086;BME280;42964;42.910;23.792;2023-02-07T06:55:49;99355.66;;;-1.59;69.77
57086;BME280;42964;42.910;23.792;2023-02-07T07:00:48;99343.41;;;-1.65;71.03
57086;BME280;42964;42.910;23.792;2023-02-07T07:05:47;99357.66;;;-1.44;71.08
57086;BME280;42964;42.910;23.792;2023-02-07T07:10:46;99338.72;;;-1.47;69.84
57086;BME280;42964;42.910;23.792;2023-02-07T07:15:45;99358.53;;;-1.19;70.03
57086;BME280;42964;42.910;23.792;2023-02-07T07:20:44;99340.13;;;-1.15;69.13
57086;BME280;42964;42.910;23.792;2023-02-07T07:25:43;99351.47;;;-0.87;69.15
57086;BME280;42964;42.910;23.792;2023-02-07T07:30:42;99344.13;;;-0.70;69.49
57086;BME280;42964;42.910;23.792;2023-02-07T07:35:41;99348.72;;;-0.53;67.59
57086;BME280;42964;42.910;23.792;2023-02-07T07:40:40;99351.47;;;-0.50;67.39
57086;BME280;42964;42.910;23.792;2023-02-07T07:45:39;99353.09;;;-0.25;68.11
57086;BME280;42964;42.910;23.792;2023-02-07T07:50:38;99348.19;;;-0.35;66.54
57086;BME280;42964;42.910;23.792;2023-02-07T07:55:36;99341.47;;;-0.47;66.54
57086;BME280;42964;42.910;23.792;2023-02-07T08:00:35;99347.50;;;-0.33;66.11
57086;BME280;42964;42.910;23.792;2023-02-07T08:05:34;99303.59;;;-0.54;63.90
57086;BME280;42964;42.910;23.792;2023-02-07T08:10:33;99334.59;;;-0.23;64.39
57086;BME280;42964;42.910;23.792;2023-02-07T08:15:32;99348.84;;;-0.13;63.91
57086;BME280;42964;42.910;23.792;2023-02-07T08:20:32;99353.13;;;0.13;64.17
57086;BME280;42964;42.910;23.792;2023-02-07T08:25:31;99347.56;;;0.45;62.71
57086;BME280;42964;42.910;23.792;2023-02-07T08:30:30;99353.78;;;-0.28;63.09
57086;BME280;42964;42.910;23.792;2023-02-07T08:35:29;99343.59;;;-0.78;63.52
57086;BME280;42964;42.910;23.792;2023-02-07T08:40:28;99349.75;;;-0.99;65.60
57086;BME280;42964;42.910;23.792;2023-02-07T08:45:27;99348.22;;;-0.72;64.50
57086;BME280;42964;42.910;23.792;2023-02-07T08:50:26;99343.75;;;-0.88;65.25
57086;BME280;42964;42.910;23.792;2023-02-07T08:55:25;99351.84;;;-1.06;65.39
57086;BME280;42964;42.910;23.792;2023-02-07T09:00:24;99359.06;;;-1.24;65.55
57086;BME280;42964;42.910;23.792;2023-02-07T09:05:23;99361.91;;;-0.95;64.87
57086;BME280;42964;42.910;23.792;2023-02-07T09:10:22;99363.53;;;-0.22;65.70
57086;BME280;42964;42.910;23.792;2023-02-07T09:15:21;99356.44;;;0.12;62.57
57086;BME280;42964;42.910;23.792;2023-02-07T09:20:20;99349.03;;;0.42;59.76
57086;BME280;42964;42.910;23.792;2023-02-07T09:25:18;99337.94;;;0.41;57.60
57086;BME280;42964;42.910;23.792;2023-02-07T09:30:17;99340.53;;;0.16;57.55
57086;BME280;42964;42.910;23.792;2023-02-07T09:35:16;99333.47;;;-0.01;57.67
57086;BME280;42964;42.910;23.792;2023-02-07T09:40:16;99329.13;;;-0.16;56.40
57086;BME280;42964;42.910;23.792;2023-02-07T09:45:19;99260.47;;;-0.76;56.55
57086;BME280;42964;42.910;23.792;2023-02-07T09:50:25;99319.19;;;-0.49;56.76
57086;BME280;42964;42.910;23.792;2023-02-07T09:55:31;99308.50;;;-0.19;57.43
57086;BME280;42964;42.910;23.792;2023-02-07T10:00:35;99314.88;;;-0.50;55.60
57086;BME280;42964;42.910;23.792;2023-02-07T10:05:43;99269.84;;;-0.88;55.39
57086;BME280;42964;42.910;23.792;2023-02-07T10:10:46;99288.72;;;-0.48;55.62
57086;BME280;42964;42.910;23.792;2023-02-07T10:15:57;99292.69;;;-0.26;53.80
57086;BME280;42964;42.910;23.792;2023-02-07T10:31:13;99283.13;;;-0.04;53.40
57086;BME280;42964;42.910;23.792;2023-02-07T10:36:17;99263.50;;;0.22;53.15
57086;BME280;42964;42.910;23.792;2023-02-07T10:41:33;99264.81;;;0.57;51.59
57086;BME280;42964;42.910;23.792;2023-02-07T10:46:33;99262.44;;;1.01;53.56
57086;BME280;42964;42.910;23.792;2023-02-07T10:51:40;99215.50;;;1.14;52.05
57086;BME280;42964;42.910;23.792;2023-02-07T10:56:46;99239.50;;;1.16;51.11
57086;BME280;42964;42.910;23.792;2023-02-07T11:01:52;99233.34;;;1.27;50.13
57086;BME280;42964;42.910;23.792;2023-02-07T11:06:59;99222.91;;;1.09;49.51
57086;BME280;42964;42.910;23.792;2023-02-07T11:11:58;99228.00;;;0.95;50.13
57086;BME280;42964;42.910;23.792;2023-02-07T11:16:58;99225.34;;;0.93;50.04
57086;BME280;42964;42.910;23.792;2023-02-07T11:22:09;99224.34;;;1.19;50.77
57086;BME280;42964;42.910;23.792;2023-02-07T11:32:13;99195.97;;;1.44;50.55
57086;BME280;42964;42.910;23.792;2023-02-07T11:42:35;99208.53;;;2.15;48.36
57086;BME280;42964;42.910;23.792;2023-02-07T11:47:34;99195.75;;;2.01;47.65
57086;BME280;42964;42.910;23.792;2023-02-07T11:52:37;99147.28;;;1.43;46.44
57086;BME280;42964;42.910;23.792;2023-02-07T11:57:37;99195.00;;;1.42;47.81
57086;BME280;42964;42.910;23.792;2023-02-07T12:02:36;99195.44;;;1.20;47.40
57086;BME280;42964;42.910;23.792;2023-02-07T12:07:41;99195.31;;;1.04;47.56
57086;BME280;42964;42.910;23.792;2023-02-07T12:12:46;99180.09;;;1.20;47.54
57086;BME280;42964;42.910;23.792;2023-02-07T12:18:00;99179.41;;;1.67;47.77
57086;BME280;42964;42.910;23.792;2023-02-07T12:28:17;99162.38;;;2.14;47.14
57086;BME280;42964;42.910;23.792;2023-02-07T12:33:30;99173.13;;;2.08;44.92
57086;BME280;42964;42.910;23.792;2023-02-07T13:10:02;99171.75;;;0.95;42.16
57086;BME280;42964;42.910;23.792;2023-02-07T13:15:23;99102.44;;;0.32;41.31
57086;BME280;42964;42.910;23.792;2023-02-07T13:20:42;99171.97;;;0.84;40.68
57086;BME280;42964;42.910;23.792;2023-02-07T13:25:48;99176.28;;;1.28;40.02
57086;BME280;42964;42.910;23.792;2023-02-07T13:30:52;99115.00;;;1.15;40.24
57086;BME280;42964;42.910;23.792;2023-02-07T13:35:53;99184.56;;;1.24;41.40
57086;BME280;42964;42.910;23.792;2023-02-07T13:41:08;99092.31;;;0.92;42.32
57086;BME280;42964;42.910;23.792;2023-02-07T13:56:37;99187.41;;;0.86;41.23
57086;BME280;42964;42.910;23.792;2023-02-07T14:01:57;99180.66;;;1.01;39.94
57086;BME280;42964;42.910;23.792;2023-02-07T14:07:02;99184.59;;;0.81;40.52
57086;BME280;42964;42.910;23.792;2023-02-07T14:12:21;99179.50;;;0.68;40.75
57086;BME280;42964;42.910;23.792;2023-02-07T14:27:42;99187.25;;;0.41;43.49
57086;BME280;42964;42.910;23.792;2023-02-07T14:33:13;99182.88;;;0.12;45.96
57086;BME280;42964;42.910;23.792;2023-02-07T14:38:24;99189.69;;;-0.02;45.90
57086;BME280;42964;42.910;23.792;2023-02-07T14:43:35;99189.56;;;-0.17;46.21
57086;BME280;42964;42.910;23.792;2023-02-07T14:53:43;99191.06;;;-0.20;46.54
57086;BME280;42964;42.910;23.792;2023-02-07T14:58:45;99193.97;;;-0.14;46.15
57086;BME280;42964;42.910;23.792;2023-02-07T15:03:44;99183.78;;;-0.27;46.14
57086;BME280;42964;42.910;23.792;2023-02-07T15:08:57;99195.72;;;-0.40;44.85
57086;BME280;42964;42.910;23.792;2023-02-07T15:13:59;99188.94;;;-0.66;44.34
57086;BME280;42964;42.910;23.792;2023-02-07T15:24:22;99209.19;;;-1.06;46.24
57086;BME280;42964;42.910;23.792;2023-02-07T15:29:34;99216.88;;;-1.17;46.29
57086;BME280;42964;42.910;23.792;2023-02-07T15:34:34;99223.66;;;-1.18;46.82
57086;BME280;42964;42.910;23.792;2023-02-07T15:39:33;99223.53;;;-1.19;47.62
57086;BME280;42964;42.910;23.792;2023-02-07T15:44:32;99223.84;;;-1.15;47.99
57086;BME280;42964;42.910;23.792;2023-02-07T15:49:43;99206.81;;;-1.16;46.71
57086;BME280;42964;42.910;23.792;2023-02-07T15:54:43;99235.78;;;-1.02;47.03
57086;BME280;42964;42.910;23.792;2023-02-07T15:59:43;99214.41;;;-1.04;47.20
57086;BME280;42964;42.910;23.792;2023-02-07T16:04:43;99232.50;;;-0.88;47.15
57086;BME280;42964;42.910;23.792;2023-02-07T16:09:44;99233.25;;;-0.89;47.44
57086;BME280;42964;42.910;23.792;2023-02-07T16:14:44;99236.72;;;-0.88;47.92
57086;BME280;42964;42.910;23.792;2023-02-07T16:19:44;99241.69;;;-0.90;47.95
57086;BME280;42964;42.910;23.792;2023-02-07T16:24:44;99241.50;;;-0.93;46.95
57086;BME280;42964;42.910;23.792;2023-02-07T16:29:45;99213.66;;;-1.15;47.48
57086;BME280;42964;42.910;23.792;2023-02-07T16:34:44;99240.44;;;-1.08;48.53
57086;BME280;42964;42.910;23.792;2023-02-07T16:39:45;99238.50;;;-1.24;49.88
57086;BME280;42964;42.910;23.792;2023-02-07T16:44:44;99253.59;;;-1.39;51.19
57086;BME280;42964;42.910;23.792;2023-02-07T16:49:44;99195.59;;;-1.92;51.13
57086;BME280;42964;42.910;23.792;2023-02-07T16:54:43;99250.13;;;-1.76;51.98
57086;BME280;42964;42.910;23.792;2023-02-07T16:59:44;99199.94;;;-2.14;52.57
57086;BME280;42964;42.910;23.792;2023-02-07T17:04:43;99263.84;;;-2.10;54.04
57086;BME280;42964;42.910;23.792;2023-02-07T17:09:42;99272.13;;;-2.12;53.13
57086;BME280;42964;42.910;23.792;2023-02-07T17:14:43;99282.00;;;-2.51;54.82
57086;BME280;42964;42.910;23.792;2023-02-07T17:19:43;99278.78;;;-2.60;54.36
57086;BME280;42964;42.910;23.792;2023-02-07T17:24:44;99288.50;;;-2.66;54.42
57086;BME280;42964;42.910;23.792;2023-02-07T17:29:44;99286.25;;;-2.73;54.43
57086;BME280;42964;42.910;23.792;2023-02-07T17:34:43;99284.88;;;-2.92;55.24
57086;BME280;42964;42.910;23.792;2023-02-07T17:39:42;99285.25;;;-2.97;56.20
57086;BME280;42964;42.910;23.792;2023-02-07T17:44:40;99286.03;;;-2.98;56.09
57086;BME280;42964;42.910;23.792;2023-02-07T17:49:39;99303.25;;;-3.06;56.09
57086;BME280;42964;42.910;23.792;2023-02-07T17:54:38;99308.06;;;-3.09;56.61
57086;BME280;42964;42.910;23.792;2023-02-07T17:59:42;99303.63;;;-3.12;56.65
57086;BME280;42964;42.910;23.792;2023-02-07T18:04:41;99311.41;;;-3.20;56.31
57086;BME280;42964;42.910;23.792;2023-02-07T18:09:39;99310.53;;;-3.43;56.40
57086;BME280;42964;42.910;23.792;2023-02-07T18:14:38;99322.06;;;-3.46;55.65
57086;BME280;42964;42.910;23.792;2023-02-07T18:19:37;99314.09;;;-3.51;56.59
57086;BME280;42964;42.910;23.792;2023-02-07T18:24:36;99295.88;;;-3.67;57.18
57086;BME280;42964;42.910;23.792;2023-02-07T18:29:36;99310.06;;;-3.59;57.14
57086;BME280;42964;42.910;23.792;2023-02-07T18:34:35;99302.25;;;-3.62;57.97
57086;BME280;42964;42.910;23.792;2023-02-07T18:39:34;99300.56;;;-3.62;58.82
57086;BME280;42964;42.910;23.792;2023-02-07T18:44:33;99280.06;;;-3.75;58.31
57086;BME280;42964;42.910;23.792;2023-02-07T18:49:33;99306.03;;;-3.67;58.55
57086;BME280;42964;42.910;23.792;2023-02-07T18:54:32;99305.56;;;-3.73;58.63
57086;BME280;42964;42.910;23.792;2023-02-07T18:59:31;99305.19;;;-3.88;58.01
57086;BME280;42964;42.910;23.792;2023-02-07T19:04:32;99301.81;;;-3.99;58.39
57086;BME280;42964;42.910;23.792;2023-02-07T19:09:31;99315.78;;;-4.25;59.94
57086;BME280;42964;42.910;23.792;2023-02-07T19:14:30;99314.16;;;-4.34;60.74
57086;BME280;42964;42.910;23.792;2023-02-07T19:19:31;99318.19;;;-4.47;62.23
57086;BME280;42964;42.910;23.792;2023-02-07T19:24:30;99310.97;;;-4.42;61.61
57086;BME280;42964;42.910;23.792;2023-02-07T19:29:29;99238.81;;;-4.88;61.06
57086;BME280;42964;42.910;23.792;2023-02-07T19:34:28;99312.63;;;-4.43;61.60
57086;BME280;42964;42.910;23.792;2023-02-07T19:39:28;99316.56;;;-4.46;60.22
57086;BME280;42964;42.910;23.792;2023-02-07T19:44:27;99316.06;;;-4.52;60.15
57086;BME280;42964;42.910;23.792;2023-02-07T19:49:26;99327.56;;;-4.56;60.47
57086;BME280;42964;42.910;23.792;2023-02-07T19:54:26;99311.50;;;-4.67;60.70
57086;BME280;42964;42.910;23.792;2023-02-07T19:59:25;99264.34;;;-5.06;60.62
57086;BME280;42964;42.910;23.792;2023-02-07T20:04:23;99342.13;;;-4.64;60.16
57086;BME280;42964;42.910;23.792;2023-02-07T20:09:22;99344.91;;;-4.71;60.46
57086;BME280;42964;42.910;23.792;2023-02-07T20:14:21;99350.34;;;-4.76;60.84
57086;BME280;42964;42.910;23.792;2023-02-07T20:19:20;99346.50;;;-5.02;63.98
57086;BME280;42964;42.910;23.792;2023-02-07T20:24:20;99358.28;;;-5.03;64.88
57086;BME280;42964;42.910;23.792;2023-02-07T20:29:19;99345.84;;;-5.10;65.33
57086;BME280;42964;42.910;23.792;2023-02-07T20:34:20;99363.94;;;-5.05;64.10
57086;BME280;42964;42.910;23.792;2023-02-07T20:39:20;99361.03;;;-5.10;64.36
57086;BME280;42964;42.910;23.792;2023-02-07T20:44:21;99371.28;;;-5.08;64.24
57086;BME280;42964;42.910;23.792;2023-02-07T20:49:24;99361.41;;;-5.05;62.68
57086;BME280;42964;42.910;23.792;2023-02-07T20:54:26;99363.56;;;-5.10;63.59
57086;BME280;42964;42.910;23.792;2023-02-07T20:59:27;99374.19;;;-5.14;63.46
57086;BME280;42964;42.910;23.792;2023-02-07T21:04:27;99373.16;;;-5.16;63.40
57086;BME280;42964;42.910;23.792;2023-02-07T21:09:27;99353.47;;;-5.29;63.03
57086;BME280;42964;42.910;23.792;2023-02-07T21:14:28;99375.94;;;-5.13;62.81
57086;BME280;42964;42.910;23.792;2023-02-07T21:19:27;99386.47;;;-5.08;63.88
57086;BME280;42964;42.910;23.792;2023-02-07T21:24:27;99327.53;;;-5.36;63.96
57086;BME280;42964;42.910;23.792;2023-02-07T21:29:26;99365.88;;;-5.03;63.44
57086;BME280;42964;42.910;23.792;2023-02-07T21:34:25;99382.66;;;-5.13;64.83
57086;BME280;42964;42.910;23.792;2023-02-07T21:39:24;99390.22;;;-5.23;66.06
57086;BME280;42964;42.910;23.792;2023-02-07T21:44:23;99394.25;;;-5.26;66.42
57086;BME280;42964;42.910;23.792;2023-02-07T21:49:22;99388.31;;;-5.26;66.85
57086;BME280;42964;42.910;23.792;2023-02-07T21:54:22;99387.53;;;-5.25;66.19
57086;BME280;42964;42.910;23.792;2023-02-07T21:59:21;99388.38;;;-5.35;66.80
57086;BME280;42964;42.910;23.792;2023-02-07T22:04:20;99399.88;;;-5.38;66.45
57086;BME280;42964;42.910;23.792;2023-02-07T22:09:19;99407.75;;;-5.35;66.82
57086;BME280;42964;42.910;23.792;2023-02-07T22:14:21;99328.03;;;-5.89;65.96
57086;BME280;42964;42.910;23.792;2023-02-07T22:19:22;99362.53;;;-5.70;66.23
57086;BME280;42964;42.910;23.792;2023-02-07T22:24:21;99417.13;;;-5.53;67.34
57086;BME280;42964;42.910;23.792;2023-02-07T22:29:20;99396.66;;;-5.75;67.10
57086;BME280;42964;42.910;23.792;2023-02-07T22:34:19;99407.84;;;-5.63;67.48
57086;BME280;42964;42.910;23.792;2023-02-07T22:39:18;99413.72;;;-5.54;67.46
57086;BME280;42964;42.910;23.792;2023-02-07T22:44:17;99415.00;;;-5.49;67.34
57086;BME280;42964;42.910;23.792;2023-02-07T22:49:16;99421.56;;;-5.70;69.58
57086;BME280;42964;42.910;23.792;2023-02-07T22:54:17;99353.22;;;-6.18;69.55
57086;BME280;42964;42.910;23.792;2023-02-07T22:59:16;99411.31;;;-5.90;70.04
57086;BME280;42964;42.910;23.792;2023-02-07T23:04:16;99427.72;;;-5.95;70.63
57086;BME280;42964;42.910;23.792;2023-02-07T23:09:15;99431.25;;;-6.12;70.68
57086;BME280;42964;42.910;23.792;2023-02-07T23:14:14;99431.31;;;-6.02;70.51
57086;BME280;42964;42.910;23.792;2023-02-07T23:19:15;99431.31;;;-6.02;70.35
57086;BME280;42964;42.910;23.792;2023-02-07T23:24:15;99427.72;;;-5.76;69.66
57086;BME280;42964;42.910;23.792;2023-02-07T23:29:14;99433.38;;;-5.60;68.38
57086;BME280;42964;42.910;23.792;2023-02-07T23:34:13;99421.31;;;-5.54;68.43
57086;BME280;42964;42.910;23.792;2023-02-07T23:39:12;99428.69;;;-5.47;68.77
57086;BME280;42964;42.910;23.792;2023-02-07T23:44:11;99424.53;;;-5.36;67.92
57086;BME280;42964;42.910;23.792;2023-02-07T23:49:10;99431.09;;;-5.19;68.23
57086;BME280;42964;42.910;23.792;2023-02-07T23:54:09;99353.22;;;-5.61;66.78
57086;BME280;42964;42.910;23.792;2023-02-07T23:59:08;99430.34;;;-5.18;66.54
